Kaibab Indian Reservation, Arizona
Current Conditions -  °F | °C
As of 6:15 PM on Saturday 25 Oct 2014 (Local Time) from KAZC Reporting Station
Clear Clear  
Wind Chill: 68°   Ceiling: Unl
Heat Index: 68°   Visibility: 10mi
Dew Point: 39°   Wind: 5mph
Humidity: 35%   Direction: 200°SSW
Pressure: 30.12"   Gusts: NA
Location:  36.9484°N, 112.529°W
Report Text: KAZC 260115Z AUTO 20004KT 10SM CLR 20/04 A3012 RMK AO2 T01990038
Loading
Personal Weather Stations






























Interactive Weather Map
Tropical Storm Tracking
New forecast layout! Learn more

10-Day Weather Forecast

Advertisements
Track Severe Weather on mobile